createdAt,value
2023-03-19T00:00:45.279Z,5.47
2023-03-19T00:03:12.308Z,6.00
2023-03-19T00:05:39.349Z,5.57
2023-03-19T00:08:06.925Z,5.47
2023-03-19T00:10:37.712Z,5.13
2023-03-19T00:13:04.659Z,5.40
2023-03-19T00:15:31.884Z,6.18
2023-03-19T00:17:58.979Z,3.72
2023-03-19T00:20:26.184Z,4.07
2023-03-19T00:22:53.233Z,4.40
2023-03-19T00:25:20.707Z,3.05
2023-03-19T00:27:47.692Z,3.05
2023-03-19T00:30:15.093Z,2.78
2023-03-19T00:32:42.201Z,2.95
2023-03-19T00:35:09.596Z,3.30
2023-03-19T00:37:37.440Z,2.85
2023-03-19T00:40:05.736Z,2.95
2023-03-19T00:42:33.029Z,2.95
2023-03-19T00:45:00.604Z,2.58
2023-03-19T00:47:27.780Z,2.90
2023-03-19T00:49:54.811Z,4.40
2023-03-19T00:52:21.783Z,2.20
2023-03-19T00:54:48.789Z,2.75
2023-03-19T00:57:15.883Z,5.72
2023-03-19T00:59:42.860Z,3.17
2023-03-19T01:02:09.895Z,3.72
2023-03-19T01:04:36.932Z,2.72
2023-03-19T01:07:04.321Z,4.70
2023-03-19T01:09:31.559Z,3.80
2023-03-19T01:11:58.813Z,3.47
2023-03-19T01:14:25.937Z,3.88
2023-03-19T01:16:52.924Z,1.50
2023-03-19T01:19:20.198Z,5.50
2023-03-19T01:21:47.257Z,2.78
2023-03-19T01:24:14.528Z,4.57
2023-03-19T01:26:41.582Z,3.95
2023-03-19T01:29:09.423Z,1.40
2023-03-19T01:31:37.386Z,2.38
2023-03-19T01:34:04.750Z,1.88
2023-03-19T01:36:32.262Z,3.85
2023-03-19T01:38:59.406Z,3.33
2023-03-19T01:41:26.515Z,1.88
2023-03-19T01:43:53.495Z,2.45
2023-03-19T01:46:34.685Z,3.45
2023-03-19T01:49:06.347Z,2.70
2023-03-19T01:51:41.395Z,3.50
2023-03-19T01:54:14.568Z,2.42
2023-03-19T01:56:44.021Z,2.60
2023-03-19T01:59:29.377Z,2.42
2023-03-19T02:02:27.486Z,2.13
2023-03-19T02:05:03.094Z,3.80
2023-03-19T02:07:32.990Z,4.60
2023-03-19T02:10:03.572Z,4.35
2023-03-19T02:12:31.726Z,3.60
2023-03-19T02:14:58.922Z,2.75
2023-03-19T02:17:28.622Z,3.47
2023-03-19T02:20:13.892Z,3.30
2023-03-19T02:22:52.534Z,3.40
2023-03-19T02:25:36.556Z,3.90
2023-03-19T02:28:04.108Z,4.13
2023-03-19T02:30:34.469Z,4.30
2023-03-19T02:33:01.665Z,4.72
2023-03-19T02:35:33.461Z,3.85
2023-03-19T02:38:03.654Z,3.90
2023-03-19T02:40:38.449Z,3.78
2023-03-19T02:43:05.465Z,5.50
2023-03-19T02:45:32.785Z,5.32
2023-03-19T02:48:00.583Z,5.10
2023-03-19T02:50:27.573Z,2.78
2023-03-19T02:52:54.713Z,4.85
2023-03-19T02:55:22.233Z,3.70
2023-03-19T02:57:49.242Z,5.28
2023-03-19T03:00:20.831Z,4.85
2023-03-19T03:02:47.908Z,3.75
2023-03-19T03:05:14.889Z,5.28
2023-03-19T03:07:43.834Z,5.80
2023-03-19T03:10:11.712Z,3.88
2023-03-19T03:12:38.913Z,5.78
2023-03-19T03:15:08.555Z,3.65
2023-03-19T03:17:40.784Z,4.38
2023-03-19T03:20:09.501Z,3.42
2023-03-19T03:22:36.471Z,3.15
2023-03-19T03:25:03.883Z,4.70
2023-03-19T03:27:31.412Z,4.25
2023-03-19T03:29:58.462Z,3.38
2023-03-19T03:32:26.491Z,2.80
2023-03-19T03:34:53.461Z,3.63
2023-03-19T03:37:20.477Z,4.35
2023-03-19T03:39:48.272Z,4.60
2023-03-19T03:42:15.336Z,4.05
2023-03-19T03:44:42.349Z,4.00
2023-03-19T03:47:09.750Z,5.90
2023-03-19T03:49:36.709Z,4.13
2023-03-19T03:52:04.197Z,3.75
2023-03-19T03:54:31.264Z,4.72
2023-03-19T03:56:58.206Z,4.10
2023-03-19T03:59:25.591Z,3.75
2023-03-19T04:01:52.725Z,4.55
2023-03-19T04:04:20.233Z,3.60
2023-03-19T04:06:47.383Z,3.15
2023-03-19T04:09:14.775Z,5.22
2023-03-19T04:11:42.260Z,3.95
2023-03-19T04:14:09.701Z,5.75
2023-03-19T04:16:36.706Z,8.70
2023-03-19T04:19:03.735Z,8.50
2023-03-19T04:21:31.145Z,4.47
2023-03-19T04:23:58.209Z,4.45
2023-03-19T04:26:25.166Z,4.68
2023-03-19T04:28:52.237Z,4.50
2023-03-19T04:31:19.266Z,4.00
2023-03-19T04:33:46.241Z,4.13
2023-03-19T04:36:13.414Z,2.65
2023-03-19T04:38:40.377Z,4.60
2023-03-19T04:41:07.480Z,2.97
2023-03-19T04:43:34.509Z,3.47
2023-03-19T04:46:01.558Z,3.65
2023-03-19T04:48:28.554Z,3.35
2023-03-19T04:50:57.114Z,2.83
2023-03-19T04:53:24.901Z,2.75
2023-03-19T04:55:53.878Z,3.90
2023-03-19T04:58:21.389Z,3.47
2023-03-19T05:00:48.838Z,7.70
2023-03-19T05:03:17.108Z,3.80
2023-03-19T05:05:44.101Z,4.22
2023-03-19T05:08:11.604Z,4.43
2023-03-19T05:10:38.744Z,2.92
2023-03-19T05:13:07.294Z,5.70
2023-03-19T05:15:35.660Z,3.83
2023-03-19T05:18:02.707Z,3.45
2023-03-19T05:20:29.794Z,4.00
2023-03-19T05:22:56.717Z,3.30
2023-03-19T05:25:23.660Z,3.22
2023-03-19T05:27:50.632Z,2.95
2023-03-19T05:30:18.486Z,4.50
2023-03-19T05:32:46.584Z,3.70
2023-03-19T05:35:18.436Z,4.53
2023-03-19T05:37:46.024Z,3.63
2023-03-19T05:40:23.881Z,5.22
2023-03-19T05:42:51.268Z,6.05
2023-03-19T05:45:18.712Z,5.70
2023-03-19T05:47:49.139Z,3.38
2023-03-19T05:50:17.968Z,5.32
2023-03-19T05:52:45.168Z,2.67
2023-03-19T05:55:15.133Z,2.85
2023-03-19T05:57:53.331Z,2.35
2023-03-19T06:00:21.170Z,4.82
2023-03-19T06:02:48.419Z,4.50
2023-03-19T06:05:15.435Z,4.07
2023-03-19T06:07:43.359Z,4.63
2023-03-19T06:10:11.639Z,2.55
2023-03-19T06:12:38.644Z,3.63
2023-03-19T06:15:06.779Z,3.65
2023-03-19T06:17:33.764Z,3.45
2023-03-19T06:20:01.185Z,4.43
2023-03-19T06:22:28.260Z,4.15
2023-03-19T06:24:55.655Z,5.00
2023-03-19T06:27:22.705Z,3.92
2023-03-19T06:29:49.710Z,5.28
2023-03-19T06:32:16.796Z,4.88
2023-03-19T06:34:43.908Z,5.97
2023-03-19T06:37:11.388Z,4.82
2023-03-19T06:39:39.447Z,6.18
2023-03-19T06:42:07.408Z,5.63
2023-03-19T06:44:34.471Z,4.68
2023-03-19T06:47:01.663Z,6.00
2023-03-19T06:49:28.693Z,7.63
2023-03-19T06:51:55.652Z,4.38
2023-03-19T06:54:22.730Z,4.32
2023-03-19T06:56:49.869Z,5.80
2023-03-19T06:59:16.818Z,3.40
2023-03-19T07:01:43.913Z,3.78
2023-03-19T07:04:11.300Z,3.92
2023-03-19T07:06:38.434Z,4.55
2023-03-19T07:09:05.582Z,4.97
2023-03-19T07:11:35.696Z,4.57
2023-03-19T07:14:03.889Z,4.10
2023-03-19T07:16:31.388Z,9.27
2023-03-19T07:18:58.543Z,4.75
2023-03-19T07:21:25.711Z,3.55
2023-03-19T07:23:52.799Z,4.25
2023-03-19T07:26:19.943Z,3.88
2023-03-19T07:28:46.962Z,4.28
2023-03-19T07:31:14.352Z,4.75
2023-03-19T07:33:43.898Z,5.13
2023-03-19T07:36:16.227Z,6.40
2023-03-19T07:38:46.683Z,4.00
2023-03-19T07:41:15.934Z,6.28
2023-03-19T07:43:46.709Z,4.30
2023-03-19T07:46:17.329Z,4.90
2023-03-19T07:48:49.416Z,3.65
2023-03-19T07:51:22.764Z,5.85
2023-03-19T07:53:58.026Z,5.95
2023-03-19T07:56:25.181Z,8.15
2023-03-19T07:58:52.500Z,6.18
2023-03-19T08:01:19.456Z,4.28
2023-03-19T08:03:48.425Z,6.93
2023-03-19T08:06:15.600Z,4.20
2023-03-19T08:08:42.643Z,9.20
2023-03-19T08:11:09.838Z,3.60
2023-03-19T08:13:36.873Z,4.38
2023-03-19T08:16:04.108Z,3.90
2023-03-19T08:18:31.169Z,5.50
2023-03-19T08:20:58.280Z,6.57
2023-03-19T08:23:27.894Z,1.77
2023-03-19T08:25:57.084Z,6.88
2023-03-19T08:28:26.582Z,5.03
2023-03-19T08:30:55.654Z,8.23
2023-03-19T08:33:26.782Z,6.18
2023-03-19T08:35:54.014Z,5.60
2023-03-19T08:38:21.132Z,7.97
2023-03-19T08:40:49.139Z,3.78
2023-03-19T08:43:16.191Z,1.70
2023-03-19T08:45:43.719Z,12.00
2023-03-19T08:48:10.767Z,7.90
2023-03-19T08:50:37.827Z,11.52
2023-03-19T08:53:04.897Z,9.65
2023-03-19T08:55:31.893Z,10.40
2023-03-19T08:57:58.934Z,7.47
2023-03-19T09:00:26.154Z,7.28
2023-03-19T09:02:53.185Z,7.97
2023-03-19T09:05:22.521Z,9.60
2023-03-19T09:07:54.157Z,8.70
2023-03-19T09:10:21.262Z,10.05
2023-03-19T09:12:48.688Z,7.18
2023-03-19T09:15:15.762Z,8.40
2023-03-19T09:17:42.705Z,12.23
2023-03-19T09:20:10.910Z,8.70
2023-03-19T09:22:37.885Z,9.07
2023-03-19T09:25:05.523Z,8.45
2023-03-19T09:27:32.651Z,9.98
2023-03-19T09:29:59.774Z,10.70
2023-03-19T09:32:26.782Z,6.72
2023-03-19T09:34:53.851Z,11.63
2023-03-19T09:37:21.064Z,9.80
2023-03-19T09:39:48.122Z,8.05
2023-03-19T09:42:28.131Z,8.40
2023-03-19T09:44:57.840Z,8.27
2023-03-19T09:47:27.125Z,7.55
2023-03-19T09:50:01.338Z,6.55
2023-03-19T09:52:50.672Z,8.65
2023-03-19T09:55:48.065Z,7.63
2023-03-19T09:58:20.862Z,10.38
2023-03-19T10:04:25.788Z,9.27
2023-03-19T10:07:06.459Z,6.22
2023-03-19T10:09:44.374Z,7.82
2023-03-19T10:12:38.142Z,10.07
2023-03-19T10:15:32.859Z,10.63
2023-03-19T10:18:16.105Z,9.75
2023-03-19T10:24:34.966Z,13.00
2023-03-19T10:27:11.911Z,7.25
2023-03-19T10:29:39.903Z,7.88
2023-03-19T10:32:37.633Z,15.13
2023-03-19T10:35:20.532Z,17.02
2023-03-19T10:37:50.688Z,11.27
2023-03-19T10:41:05.172Z,15.43
2023-03-19T10:43:34.884Z,16.23
2023-03-19T10:46:02.047Z,15.57
2023-03-19T10:48:30.359Z,12.43
2023-03-19T10:51:05.507Z,17.10
2023-03-19T10:53:38.443Z,16.45
2023-03-19T10:56:14.280Z,14.10
2023-03-19T10:58:41.338Z,16.42
2023-03-19T11:01:13.394Z,15.85
2023-03-19T11:03:56.001Z,15.38
2023-03-19T11:06:35.916Z,14.48
2023-03-19T11:09:19.935Z,10.88
2023-03-19T11:11:51.164Z,14.23
2023-03-19T11:14:21.961Z,16.50
2023-03-19T11:16:57.752Z,15.30
2023-03-19T11:19:29.571Z,16.02
2023-03-19T11:22:32.888Z,15.60
2023-03-19T11:25:38.708Z,17.17
2023-03-19T11:28:21.328Z,17.30
2023-03-19T11:31:19.991Z,16.00
2023-03-19T11:34:14.468Z,15.65
2023-03-19T11:37:15.576Z,23.48
2023-03-19T11:40:37.501Z,16.27
2023-03-19T11:43:23.321Z,16.13
2023-03-19T11:46:33.382Z,17.45
2023-03-19T11:49:40.611Z,17.05
2023-03-19T11:52:46.612Z,18.17
2023-03-19T11:55:39.320Z,16.05
2023-03-19T11:58:44.550Z,16.23
2023-03-19T12:01:31.495Z,16.00
2023-03-19T12:04:34.034Z,19.65
2023-03-19T12:07:25.494Z,18.30
2023-03-19T12:10:06.158Z,16.15
2023-03-19T12:12:48.215Z,17.02
2023-03-19T12:15:31.116Z,18.57
2023-03-19T12:19:01.206Z,15.85
2023-03-19T12:21:52.851Z,16.08
2023-03-19T12:24:42.694Z,17.65
2023-03-19T12:27:35.150Z,17.67
2023-03-19T12:30:49.553Z,14.35
2023-03-19T12:33:46.579Z,17.65
2023-03-19T12:36:25.522Z,16.45
2023-03-19T12:39:15.651Z,16.80
2023-03-19T12:41:46.138Z,14.57
2023-03-19T12:44:40.765Z,12.65
2023-03-19T12:47:16.865Z,21.80
2023-03-19T12:50:07.210Z,15.98
2023-03-19T12:52:41.403Z,14.13
2023-03-19T12:55:22.030Z,14.43
2023-03-19T12:58:14.928Z,18.15
2023-03-19T13:01:09.095Z,14.43
2023-03-19T13:03:46.574Z,13.95
2023-03-19T13:06:35.708Z,15.77
2023-03-19T13:09:24.248Z,16.80
2023-03-19T13:12:32.456Z,14.52
2023-03-19T13:15:38.002Z,15.73
2023-03-19T13:18:37.190Z,16.73
2023-03-19T13:21:28.208Z,11.77
2023-03-19T13:24:25.971Z,13.50
2023-03-19T13:26:54.965Z,15.55
2023-03-19T13:29:30.312Z,14.40
2023-03-19T13:32:04.910Z,15.23
2023-03-19T13:34:35.866Z,13.23
2023-03-19T13:37:21.206Z,14.35
2023-03-19T13:39:49.693Z,13.13
2023-03-19T13:42:42.163Z,17.33
2023-03-19T13:45:29.907Z,16.83
2023-03-19T13:48:24.368Z,8.50
2023-03-19T13:51:01.805Z,9.45
2023-03-19T13:53:32.474Z,14.25
2023-03-19T13:56:05.760Z,19.15
2023-03-19T13:59:12.930Z,15.75
2023-03-19T14:01:47.277Z,18.10
2023-03-19T14:04:32.243Z,15.85
2023-03-19T14:07:22.359Z,16.85
2023-03-19T14:09:57.545Z,15.95
2023-03-19T14:12:42.950Z,13.48
2023-03-19T14:15:09.942Z,16.77
2023-03-19T14:17:42.302Z,14.68
2023-03-19T14:20:17.212Z,9.95
2023-03-19T14:23:38.421Z,10.18
2023-03-19T14:26:19.748Z,13.40
2023-03-19T14:29:00.417Z,10.77
2023-03-19T14:31:47.282Z,11.82
2023-03-19T14:34:20.135Z,9.00
2023-03-19T14:39:42.065Z,10.82
2023-03-19T14:42:28.683Z,8.57
2023-03-19T14:45:42.705Z,9.02
2023-03-19T14:48:39.509Z,7.63
2023-03-19T14:51:52.030Z,8.10
2023-03-19T14:54:28.825Z,9.27
2023-03-19T14:56:57.209Z,8.10
2023-03-19T14:59:24.270Z,8.13
2023-03-19T15:01:54.031Z,4.85
2023-03-19T15:04:25.521Z,12.40
2023-03-19T15:07:01.025Z,9.93
2023-03-19T15:09:31.911Z,8.90
2023-03-19T15:12:21.624Z,7.85
2023-03-19T15:15:12.768Z,6.47
2023-03-19T15:17:40.038Z,6.97
2023-03-19T15:20:21.878Z,4.72
2023-03-19T15:23:11.028Z,6.35
2023-03-19T15:25:57.041Z,4.90
2023-03-19T15:28:27.073Z,7.80
2023-03-19T15:31:19.501Z,7.28
2023-03-19T15:33:51.635Z,7.72
2023-03-19T15:36:30.899Z,8.98
2023-03-19T15:39:04.098Z,6.03
2023-03-19T15:41:35.937Z,6.63
2023-03-19T15:44:12.029Z,4.43
2023-03-19T15:46:43.225Z,8.00
2023-03-19T15:49:32.350Z,3.58
2023-03-19T15:52:05.372Z,7.28
2023-03-19T15:54:33.917Z,7.55
2023-03-19T15:57:01.075Z,4.88
2023-03-19T15:59:31.854Z,5.53
2023-03-19T16:02:13.506Z,6.20
2023-03-19T16:05:10.095Z,4.43
2023-03-19T16:07:31.605Z,4.45
2023-03-19T16:09:59.820Z,4.45
2023-03-19T16:12:40.707Z,5.85
2023-03-19T16:15:26.426Z,3.10
2023-03-19T16:17:53.634Z,7.47
2023-03-19T16:20:20.942Z,3.22
2023-03-19T16:22:55.925Z,5.07
2023-03-19T16:25:30.209Z,5.05
2023-03-19T16:27:57.314Z,4.45
2023-03-19T16:30:27.617Z,4.65
2023-03-19T16:33:06.544Z,3.80
2023-03-19T16:35:45.343Z,4.85
2023-03-19T16:38:23.786Z,4.32
2023-03-19T16:41:23.837Z,4.20
2023-03-19T16:43:53.597Z,4.78
2023-03-19T16:46:20.802Z,5.10
2023-03-19T16:48:47.894Z,4.18
2023-03-19T16:51:19.113Z,4.13
2023-03-19T16:53:48.385Z,5.10
2023-03-19T16:56:16.564Z,3.58
2023-03-19T16:58:45.813Z,3.83
2023-03-19T17:01:24.861Z,2.83
2023-03-19T17:03:52.720Z,2.45
2023-03-19T17:06:21.191Z,4.70
2023-03-19T17:08:48.837Z,2.88
2023-03-19T17:11:29.425Z,5.47
2023-03-19T17:13:59.011Z,4.47
2023-03-19T17:16:27.936Z,3.65
2023-03-19T17:18:56.563Z,2.25
2023-03-19T17:21:30.278Z,3.72
2023-03-19T17:23:57.474Z,2.90
2023-03-19T17:26:27.752Z,3.45
2023-03-19T17:28:56.557Z,2.88
2023-03-19T17:31:30.336Z,2.28
2023-03-19T17:34:12.680Z,3.08
2023-03-19T17:36:40.121Z,2.83
2023-03-19T17:39:07.796Z,3.25
2023-03-19T17:41:35.794Z,2.65
2023-03-19T17:44:06.210Z,4.65
2023-03-19T17:46:43.018Z,4.10
2023-03-19T17:49:30.445Z,3.15
2023-03-19T17:51:59.132Z,2.65
2023-03-19T17:54:27.239Z,3.85
2023-03-19T17:56:55.828Z,0.57
2023-03-19T17:59:23.712Z,2.70
2023-03-19T18:01:53.811Z,2.45
2023-03-19T18:04:22.694Z,2.03
2023-03-19T18:06:55.933Z,1.67
2023-03-19T18:09:32.850Z,6.00
2023-03-19T18:11:59.877Z,3.90
2023-03-19T18:14:26.948Z,2.17
2023-03-19T18:16:54.022Z,2.28
2023-03-19T18:19:37.136Z,2.30
2023-03-19T18:22:16.548Z,1.00
2023-03-19T18:24:44.037Z,3.67
2023-03-19T18:27:11.183Z,2.03
2023-03-19T18:29:38.267Z,3.58
2023-03-19T18:32:17.475Z,0.70
2023-03-19T18:34:44.651Z,3.17
2023-03-19T18:37:17.593Z,2.70
2023-03-19T18:39:45.358Z,7.65
2023-03-19T18:42:13.826Z,3.90
2023-03-19T18:44:41.172Z,3.22
2023-03-19T18:47:15.645Z,3.30
2023-03-19T18:49:43.228Z,3.15
2023-03-19T18:52:16.423Z,4.00
2023-03-19T18:54:45.672Z,4.60
2023-03-19T18:57:14.460Z,7.10
2023-03-19T18:59:41.841Z,5.43
2023-03-19T19:02:37.441Z,3.53
2023-03-19T19:05:14.316Z,5.55
2023-03-19T19:07:41.439Z,3.92
2023-03-19T19:10:10.391Z,5.47
2023-03-19T19:12:41.265Z,2.13
2023-03-19T19:15:25.332Z,3.70
2023-03-19T19:17:52.970Z,6.85
2023-03-19T19:20:24.409Z,3.90
2023-03-19T19:22:52.024Z,4.65
2023-03-19T19:25:29.551Z,7.18
2023-03-19T19:28:06.474Z,2.47
2023-03-19T19:30:33.938Z,6.00
2023-03-19T19:33:02.969Z,5.13
2023-03-19T19:35:32.224Z,8.70
2023-03-19T19:37:59.272Z,4.40
2023-03-19T19:40:31.328Z,3.88
2023-03-19T19:42:58.767Z,4.15
2023-03-19T19:45:34.166Z,3.83
2023-03-19T19:48:01.276Z,7.20
2023-03-19T19:50:28.836Z,4.35
2023-03-19T19:52:56.992Z,2.50
2023-03-19T19:55:26.552Z,4.30
2023-03-19T19:57:56.647Z,6.25
2023-03-19T20:00:29.777Z,6.32
2023-03-19T20:02:58.709Z,6.82
2023-03-19T20:05:34.965Z,3.97
2023-03-19T20:08:02.714Z,3.83
2023-03-19T20:10:31.126Z,6.93
2023-03-19T20:13:01.558Z,5.07
2023-03-19T20:15:36.036Z,1.05
2023-03-19T20:18:05.317Z,7.40
2023-03-19T20:20:33.577Z,4.68
2023-03-19T20:23:04.530Z,5.18
2023-03-19T20:25:35.109Z,3.10
2023-03-19T20:28:05.176Z,3.40
2023-03-19T20:30:41.774Z,4.80
2023-03-19T20:33:12.590Z,5.97
2023-03-19T20:35:39.795Z,6.28
2023-03-19T20:38:07.010Z,6.65
2023-03-19T20:40:47.296Z,4.45
2023-03-19T20:43:35.872Z,3.45
2023-03-19T20:46:06.913Z,3.63
2023-03-19T20:48:34.644Z,5.25
2023-03-19T20:51:02.454Z,5.70
2023-03-19T20:53:29.754Z,11.43
2023-03-19T20:55:57.336Z,5.20
2023-03-19T20:58:37.118Z,4.50
2023-03-19T21:01:04.478Z,4.30
2023-03-19T21:03:32.354Z,6.32
2023-03-19T21:06:12.608Z,4.35
2023-03-19T21:08:43.561Z,7.50
2023-03-19T21:11:22.664Z,6.07
2023-03-19T21:13:52.715Z,8.23
2023-03-19T21:16:25.734Z,5.60
2023-03-19T21:18:53.973Z,7.85
2023-03-19T21:21:37.172Z,6.80
2023-03-19T21:24:14.398Z,7.22
2023-03-19T21:26:42.612Z,4.32
2023-03-19T21:29:27.788Z,6.45
2023-03-19T21:31:56.691Z,8.05
2023-03-19T21:34:23.666Z,5.03
2023-03-19T21:36:50.949Z,6.15
2023-03-19T21:39:18.582Z,8.15
2023-03-19T21:41:47.031Z,5.15
2023-03-19T21:44:19.680Z,8.15
2023-03-19T21:46:48.278Z,5.85
2023-03-19T21:49:16.758Z,6.82
2023-03-19T21:51:44.223Z,5.18
2023-03-19T21:54:11.371Z,4.93
2023-03-19T21:56:41.672Z,7.13
2023-03-19T21:59:35.857Z,5.47
2023-03-19T22:02:04.352Z,8.00
2023-03-19T22:04:31.397Z,6.57
2023-03-19T22:06:58.671Z,7.60
2023-03-19T22:09:25.705Z,10.63
2023-03-19T22:11:52.743Z,5.07
2023-03-19T22:14:26.902Z,8.18
2023-03-19T22:16:56.038Z,6.72
2023-03-19T22:19:23.816Z,6.07
2023-03-19T22:21:50.823Z,4.57
2023-03-19T22:24:17.921Z,5.20
2023-03-19T22:26:47.136Z,4.35
2023-03-19T22:29:22.806Z,7.15
2023-03-19T22:31:51.922Z,5.53
2023-03-19T22:34:22.901Z,3.65
2023-03-19T22:36:50.523Z,4.68
2023-03-19T22:39:17.938Z,5.85
2023-03-19T22:41:48.361Z,7.07
2023-03-19T22:44:30.874Z,8.77
2023-03-19T22:47:00.765Z,7.55
2023-03-19T22:49:29.742Z,7.38
2023-03-19T22:51:58.029Z,5.22
2023-03-19T22:54:25.641Z,6.97
2023-03-19T22:56:52.644Z,6.88
2023-03-19T22:59:20.336Z,6.78
2023-03-19T23:01:48.532Z,8.20
2023-03-19T23:04:23.189Z,4.93
2023-03-19T23:06:52.369Z,5.88
2023-03-19T23:09:36.038Z,5.20
2023-03-19T23:12:04.078Z,4.85
2023-03-19T23:14:31.626Z,5.50
2023-03-19T23:17:06.678Z,7.22
2023-03-19T23:19:38.461Z,5.63
2023-03-19T23:22:10.463Z,6.35
2023-03-19T23:24:37.758Z,5.47
2023-03-19T23:27:04.865Z,4.50
2023-03-19T23:29:36.137Z,8.35
2023-03-19T23:32:04.432Z,5.88
2023-03-19T23:34:35.350Z,6.93
2023-03-19T23:37:07.037Z,7.00
2023-03-19T23:39:34.038Z,4.78
2023-03-19T23:42:01.100Z,8.68
2023-03-19T23:44:29.239Z,4.15
2023-03-19T23:47:02.449Z,5.28
2023-03-19T23:49:32.550Z,5.72
2023-03-19T23:52:00.925Z,6.38
2023-03-19T23:54:37.903Z,3.85
2023-03-19T23:57:13.050Z,6.35
2023-03-19T23:59:44.094Z,6.05
